Terminal Aerodrome Forecast
Issued by NWS

Home | Current Version | Previous Version | Text Only | Print | Product List | Glossary On
Versions: 1 2 3 4 5 6 7 8 9 10 11 12 13 14 15 16 17 18 19 20 21 22 23 24 25 26 27 28 29 30 31 32 33 34 35 36 37 38 39 40 41
000
FTUS46 KEKA 041127
TAFACV
TAF
KACV 041127Z 0412/0512 10003KT P6SM SCT025
     FM041600 33006KT P6SM SKC
     FM041900 33014KT P6SM SKC
     FM042100 33018G25KT P6SM SKC
     FM050300 VRB03KT P6SM SCT015=

USA.gov is the U.S. government's official web portal to all federal, state and local government web resources and services.